x

Shumagin Islands - 85nm South Of Sand Point, Ak (46075) Wave Buoy

1:50am - Thu 5th Mar 2015 All times are UTC.

  • Sig Wave height 6.6ft
  • Peak Period 9s
  • Average Period 7s
  • Wind
    16mph, 18mph gusts
  • Sea Temp 42°f
  • 空気 Temp 36°f
  • Sea Pressure 1011.8mb

More Historic Weather Station data

Upgrade to MSW Pro to gain access to the past 30 days of data for over 8000 Wavebouys and Weather Stations around the globe.

Join Pro

Comparision Forecast

View Surf forecast
   
Thu 03/05 1:50am 6.5ft 9s 7s 16 18 mph 1011.8mb 42f 36f
12:50am 6ft 11s 6s 13 18 mph 1012.5mb 42f 37f
Wed 03/04 11:50pm 6ft 11s 7s 9 13 mph 1013.4mb 42f 37f
10:50pm 7ft 11s 7s 11 13 mph 1014.4mb 42f 38f
9:50pm 7ft 11s 7s 13 18 mph 1015mb 42f 40f
8:50pm 7ft 12s 7s 18 22 mph 1015.4mb 43f 40f
7:50pm 7ft 9s 7s 11 16 mph 1016.2mb 43f 39f
6:50pm 7ft 8s 7s 13 18 mph 1016.7mb 42f 38f
5:50pm 8ft 10s 7s 11 16 mph 1016.9mb 43f 37f
4:50pm 8.5ft 11s 7s 18 20 mph 1017.2mb 43f 37f
3:50pm 9.5ft 10s 7s 13 16 mph 1017.6mb 43f 37f
2:50pm 9ft 12s 7s 11 18 mph 1017.7mb 43f 37f
1:50pm 10ft 11s 8s 16 20 mph 1017.8mb 43f 38f
12:50pm 9ft 12s 8s 11 13 mph 1017.7mb 43f 37f
11:50am 9ft 13s 8s 11 13 mph 1018mb 43f 38f
10:50am 8.5ft 12s 8s 11 16 mph 1018mb 43f 38f
9:50am 8.5ft 10s 8s 11 13 mph 1017.8mb 42f 38f
8:50am 9.5ft 13s 8s 16 20 mph 1017.6mb 42f 38f
7:50am 8.5ft 14s 8s 13 16 mph 1017.2mb 43f 39f
6:50am 8ft 14s 8s 16 20 mph 1017mb 43f 40f
5:50am 8.5ft 10s 7s 18 22 mph 1016.8mb 43f 40f
4:50am 7ft 10s 7s 18 22 mph 1016.3mb 43f 39f
3:50am 9ft 15s 8s 16 20 mph 1015.7mb 43f 41f
2:50am 8.5ft 14s 9s 11 13 mph 1015.3mb 43f 41f
1:50am 8ft 14s 9s 7 9 mph 1015mb 43f 41f
12:50am 7ft 12s 8s 7 9 mph 1015mb 43f 42f
Tue 03/03 11:50pm 8ft 10s 8s 9 11 mph 1014.8mb 43f 41f
10:50pm 8ft 10s 8s 2 4 mph 1014.3mb 43f 42f
9:50pm 7.5ft 13s 8s 2 7 mph 1014.1mb 43f 42f
8:50pm 8ft 14s 8s 4 7 mph 1013.9mb 43f 41f
7:50pm 7ft 14s 8s 2 7 mph 1013.5mb 43f 39f
6:50pm 7ft 10s 8s 4 7 mph 1012.8mb 43f 38f
5:50pm 7ft 10s 7s 7 11 mph 1012.4mb 43f 38f
4:50pm 8ft 13s 8s 7 9 mph 1011.8mb 43f 37f
3:50pm 9ft 13s 8s 9 13 mph 1011.5mb 43f 38f
2:50pm 8.5ft 14s 8s 9 13 mph 1011.2mb 43f 38f
1:50pm 9ft 13s 8s 9 13 mph 1011mb 43f 38f
12:50pm 8.5ft 13s 8s 11 16 mph 1011.1mb 43f 38f
11:50am 8ft 14s 8s 13 16 mph 1011.1mb 43f 38f
10:50am 8ft 12s 8s 13 16 mph 1010.9mb 43f 38f
9:50am 7ft 13s 7s 13 16 mph 1010.7mb 43f 39f
8:50am 8ft 13s 8s 11 16 mph 1010.5mb 43f 39f
7:50am 8ft 14s 7s 13 16 mph 1010.2mb 43f 41f
6:50am 8ft 14s 8s 13 18 mph 1010.1mb 42f 41f
5:50am 8ft 13s 7s 16 20 mph 1009.5mb 42f 40f
4:50am 8ft 14s 7s 18 22 mph 1008.9mb 42f 41f
3:50am 8ft 14s 6s 16 20 mph 1007.9mb 42f 42f
2:50am 8ft 14s 6s 20 27 mph 1007.2mb 42f 42f
1:50am 8.5ft 14s 7s 20 25 mph 1006.8mb 42f 41f
12:50am 7.5ft 14s 6s 20 25 mph 1006.2mb 42f 41f
Mon 03/02 11:50pm 7ft 14s 6s 25 29 mph 1005.8mb 42f 41f
10:50pm 6ft 15s 7s 20 25 mph 1005.5mb 42f 40f
9:50pm 6.5ft 15s 7s 20 22 mph 1005mb 42f 41f
8:50pm 5.5ft 10s 6s 18 22 mph 1004.9mb 42f 41f
7:50pm 5.5ft 15s 7s 13 18 mph 1004.7mb 42f 42f
6:50pm 6ft 10s 7s 13 16 mph 1004.5mb 42f 42f
5:50pm 5.5ft 10s 6s 9 11 mph 1004.4mb 42f 41f
4:50pm 5.5ft 10s 6s 7
mph
1004.8mb 42f 41f
3:50pm 5ft 9s 6s 4 7 mph 1005.2mb 42f 41f
2:50pm 5ft 9s 5s 2 4 mph 1005.9mb 42f 41f
1:50pm 5ft 9s 5s 4 7 mph 1006.7mb 42f 41f
12:50pm 6ft 10s 6s 7 9 mph 1007.7mb 42f 41f
11:50am 6ft 9s 6s 11
mph
1008.7mb 42f 41f
10:50am 6ft 9s 6s 11 13 mph 1009.4mb 42f 42f
9:50am 7ft 9s 6s 13 16 mph 1010.2mb 42f 42f
8:50am 6.5ft 9s 5s 18 20 mph 1011.1mb 42f 42f
7:50am 7.5ft 9s 6s 18 22 mph 1011.9mb 42f 42f
6:50am 7ft 9s 5s 18 22 mph 1012.5mb 42f 42f
5:50am 6ft 6s 5s 16 20 mph 1013.6mb 42f 42f
4:50am 6ft 6s 5s 20 22 mph 1013.7mb 42f 42f
3:50am 6ft 6s 5s 18 22 mph 1014.5mb 42f 42f
2:50am 6ft 6s 5s 20 22 mph 1015.1mb 42f 42f
1:50am 6ft 5s 5s 20 25 mph 1016.1mb 42f 42f
12:50am 5.5ft 6s 5s 22 25 mph 1017mb 42f 42f
Sun 03/01 11:50pm 5.5ft 5s 4s 22 27 mph 1017.5mb 42f 42f
10:50pm 5.5ft 5s 4s 22 27 mph 1018.5mb 42f 42f
9:50pm 5ft 6s 4s 22 25 mph 1019.6mb 42f 42f
8:50pm 5.5ft 5s 4s 25 27 mph 1020.3mb 42f 42f
7:50pm 5ft 5s 4s 25 27 mph 1020.8mb 42f 42f
6:50pm 5ft 5s 4s 25 29 mph 1021.3mb 42f 42f
5:50pm 5ft 5s 4s 20 25 mph 1021.9mb 42f 42f
4:50pm 4.5ft 4s 4s 20 25 mph 1022.4mb 42f 41f
3:50pm 5ft 5s 4s 20 22 mph 1022.9mb 42f 42f
2:50pm 5ft 5s 4s 18 22 mph 1023.3mb 42f 42f
1:50pm 5.5ft 7s 5s 18 22 mph 1024.2mb 42f 41f
12:50pm 6ft 5s 5s 20 25 mph 1024.8mb 42f 41f
11:50am 5.5ft 5s 5s 20 25 mph 1025.4mb 42f 41f
10:50am 5ft 5s 5s 20 25 mph 1025.8mb 42f 41f
9:50am 6ft 5s 5s 22 27 mph 1026mb 42f 41f
8:50am 5ft 5s 5s 20 25 mph 1026.2mb 42f 41f
7:50am 5ft 5s 5s 20 25 mph 1026.1mb 42f 40f
6:50am 5ft 8s 4s 20 27 mph 1025.8mb 42f 41f
5:50am 6ft 8s 5s 20 22 mph 1025.9mb 42f 40f
4:50am 5.5ft 11s 5s 18 22 mph 1026mb 42f 40f
3:50am 5ft 11s 5s 18 22 mph 1025.2mb 42f 40f